Terminal Aerodrome Forecast
Issued by NWS Atlanta, GA

Home | Current Version | Previous Version | Text Only | Print | Product List | Glossary On
Versions: 1 2 3 4 5 6 7 8 9 10 11 12
000
FTUS42 KFFC 211120
TAFMCN
TAF
KMCN 211120Z 2112/2212 VRB03KT P6SM SCT250
      TEMPO 2112/2113 5SM BR
     FM211700 09005KT P6SM SCT045 SCT250
     FM212000 10005KT P6SM VCSH BKN060
     FM220000 VRB03KT P6SM SCT060 SCT150
     FM220600 00000KT 5SM BR FEW060 SCT250=

USA.gov is the U.S. government's official web portal to all federal, state and local government web resources and services.